Flight Track Log - Related Links

Times and Time Zones

All times are in EDT time to prevent confusion due to time zone crossing. See the ASQ5859 flight status page for this flight to view local times or setup timezone preferences in your user account.

Time Position Orientation Groundspeed Altitude Reporting Facility
EDT Latitude Longitude Course Direction KTS MPH feet Rate Location/Type
Tue 05:21:09 PM 44.3758 -73.1458 198° South 230 265 3,900  Level Boston Center
Tue 05:22:09 PM 44.3194 -73.1683 196° South 242 278 6,200 2,200 Climbing Boston Center
Tue 05:23:00 PM 44.3396 -73.5074 256° West  Level FlightAware Approximate
Tue 05:23:09 PM 44.2653 -73.1850 192° South 249 287 8,300  Level Boston Center
Tue 05:24:00 PM 44.3191 -73.6200 256° West  Level FlightAware Approximate
Tue 05:24:09 PM 44.2500 -73.2747 257° West 203 234 9,400  Level Boston Center
Tue 05:25:00 PM 44.3013 -73.7334 258° West  Level FlightAware Approximate
Tue 05:25:09 PM 44.2386 -73.3789 261° West 234 269 10,900  Level Boston Center
Tue 05:26:09 PM 44.2253 -73.5003 261° West 291 335 11,600 1,000 Climbing Boston Center
Tue 05:27:09 PM 44.2136 -73.6275 263° West 331 381 12,900 1,300 Climbing Boston Center
Tue 05:28:09 PM 44.1997 -73.7461 261° West 349 402 14,200 1,250 Climbing Boston Center
Tue 05:29:09 PM 44.1897 -73.8878 264° West 349 402 15,400 1,050 Climbing Boston Center
Tue 05:30:09 PM 44.1756 -74.0233 262° West 354 407 16,300 850 Climbing Boston Center
Tue 05:31:09 PM 44.1611 -74.1561 261° West 354 407 17,100 1,000 Climbing Boston Center
Tue 05:32:09 PM 44.1464 -74.2917 261° West 354 407 18,300 1,000 Climbing Boston Center
Tue 05:33:09 PM 44.1317 -74.4303 262° West 359 413 19,100 850 Climbing Boston Center
Tue 05:34:09 PM 44.1186 -74.5714 263° West 365 420 20,000 850 Climbing Boston Center
Tue 05:35:09 PM 44.1056 -74.7128 263° West 371 427 20,800 950 Climbing Boston Center
Tue 05:36:09 PM 44.0900 -74.8536 261° West 371 427 21,900 1,700 Climbing Boston Center
Tue 05:37:09 PM 44.0769 -74.9833 262° West 365 420 24,200 2,050 Climbing Boston Center
Tue 05:38:09 PM 44.0633 -75.1186 262° West 338 389 26,000 1,350 Climbing Boston Center
Tue 05:39:09 PM 44.0500 -75.2392 261° West 331 381 26,900 950 Climbing Boston Center
Tue 05:40:09 PM 44.0367 -75.3658 262° West 331 381 27,900 950 Climbing Boston Center
Tue 05:41:09 PM 44.0228 -75.4950 262° West 331 381 28,800 950 Climbing Boston Center
Tue 05:42:09 PM 44.0067 -75.6242 260° West 331 381 29,800 950 Climbing Boston Center
Tue 05:43:09 PM 43.9928 -75.7533 262° West 341 392 30,700 864 Climbing Boston Center
Tue 05:44:21 PM 43.9783 -75.8853 261° West 346 398 31,700 955 Climbing Boston Center
Tue 05:45:21 PM 43.9589 -76.0428 260° West 351 404 32,800 1,050 Climbing Boston Center
Tue 05:46:21 PM 43.9464 -76.1747 263° West 351 404 33,800 950 Climbing Boston Center
Tue 05:47:21 PM 43.9356 -76.3125 264° West 351 404 34,700 950 Climbing Boston Center
Tue 05:48:21 PM 43.9247 -76.4444 264° West 351 404 35,700 650 Climbing Boston Center
Tue 05:49:21 PM 43.9117 -76.5764 262° West 351 404 36,000 130 Climbing Boston Center
Tue 05:50:39 PM 43.8833 -76.7333 256° West 360 414 36,000  Level Toronto Center
Tue 05:51:39 PM 43.8667 -76.8833 261° West 390 449 36,000  Level Toronto Center
Tue 05:52:39 PM 43.8500 -77.0167 260° West 390 449 36,000  Level Toronto Center
Tue 05:53:39 PM 43.8333 -77.1667 261° West 370 426 36,000  Level Toronto Center
Tue 05:54:39 PM 43.8167 -77.3000 260° West 360 414 36,000  Level Toronto Center
Tue 05:55:39 PM 43.8167 -77.4333 270° West 360 414 36,000  Level Toronto Center
Tue 05:56:39 PM 43.8000 -77.5833 261° West 370 426 36,000  Level Toronto Center
Tue 05:57:39 PM 43.7833 -77.7167 260° West 360 414 36,000  Level Toronto Center
Tue 05:58:39 PM 43.7667 -77.8500 260° West 350 403 36,000  Level Toronto Center
Tue 05:59:39 PM 43.7500 -77.9667 259° West 340 391 36,000  Level Toronto Center
Tue 06:00:39 PM 43.7333 -78.1167 261° West 350 403 36,000  Level Toronto Center
Tue 06:01:39 PM 43.7167 -78.2500 260° West 360 414 36,000  Level Toronto Center
Tue 06:02:39 PM 43.7000 -78.3833 260° West 350 403 36,000  Level Toronto Center
Tue 06:03:39 PM 43.7000 -78.5000 270° West 340 391 36,000  Level Toronto Center
Tue 06:04:39 PM 43.7000 -78.6333 270° West 330 380 36,000  Level Toronto Center
Tue 06:05:39 PM 43.6833 -78.7500 259° West 330 380 36,000  Level Toronto Center
Tue 06:06:39 PM 43.6667 -78.9000 261° West 350 403 36,000  Level Toronto Center
Tue 06:07:39 PM 43.6500 -79.0333 260° West 370 426 36,000  Level Toronto Center
Tue 06:08:39 PM 43.6333 -79.2000 262° West 380 437 36,000  Level Toronto Center
Tue 06:09:39 PM 43.6167 -79.3333 260° West 390 449 36,000  Level Toronto Center
Tue 06:10:39 PM 43.6000 -79.4667 260° West 370 426 36,000  Level Toronto Center
Tue 06:11:39 PM 43.6000 -79.6333 270° West 380 437 36,000  Level Toronto Center
Tue 06:12:39 PM 43.5833 -79.7667 260° West 380 437 36,000  Level Toronto Center
Tue 06:13:39 PM 43.5667 -79.9167 261° West 380 437 36,000  Level Toronto Center
Tue 06:14:39 PM 43.5500 -80.0500 260° West 390 449 36,000  Level Toronto Center
Tue 06:15:39 PM 43.5333 -80.2000 261° West 390 449 36,000  Level Toronto Center
Tue 06:16:39 PM 43.5167 -80.3500 261° West 380 437 36,000  Level Toronto Center
Tue 06:17:39 PM 43.5000 -80.5000 261° West 380 437 36,000  Level Toronto Center
Tue 06:18:39 PM 43.5000 -80.6167 270° West 370 426 36,000  Level Toronto Center
Tue 06:19:39 PM 43.4833 -80.7833 262° West 370 426 36,000  Level Toronto Center
Tue 06:20:39 PM 43.4500 -80.9167 251° West 380 437 36,000  Level Toronto Center
Tue 06:21:39 PM 43.4333 -81.0833 262° West 390 449 36,000  Level Toronto Center
Tue 06:22:39 PM 43.4167 -81.2167 260° West 390 449 36,000  Level Toronto Center
Tue 06:23:39 PM 43.4000 -81.3500 260° West 390 449 36,000  Level Toronto Center
Tue 06:24:39 PM 43.3833 -81.5167 262° West 380 437 36,000  Level Toronto Center
Tue 06:25:39 PM 43.3833 -81.6500 270° West 370 426 36,000  Level Toronto Center
Tue 06:26:39 PM 43.3667 -81.7667 259° West 370 426 36,000  Level Toronto Center
Tue 06:27:39 PM 43.3333 -81.9333 255° West 370 426 36,000  Level Toronto Center
Tue 06:28:39 PM 43.3167 -82.0667 260° West 380 437 36,000  Level Toronto Center
Tue 06:29:39 PM 43.3000 -82.2167 261° West 390 449 36,000  Level Toronto Center
Tue 06:30:39 PM 43.2833 -82.3667 261° West 410 472 36,000  Level Toronto Center
Tue 06:31:39 PM 43.2667 -82.5167 261° West 410 472 36,000  Level Toronto Center
Tue 06:32:44 PM 43.2578 -82.6956 266° West 415 478 36,000 -480 Level Cleveland Center
Tue 06:33:44 PM 43.2239 -82.8339 251° West 400 460 35,000 -1,250 Descending Cleveland Center
Tue 06:34:44 PM 43.1858 -82.9692 249° West 407 468 33,500 -1,400 Descending Cleveland Center
Tue 06:35:44 PM 43.1475 -83.1044 249° West 402 463 32,200 -750 Descending Cleveland Center
Tue 06:36:44 PM 43.1111 -83.2367 249° West 390 449 32,000 -100 Descending Cleveland Center
Tue 06:37:44 PM 43.0725 -83.3769 249° West 390 449 32,000  Level Cleveland Center
Tue 06:38:44 PM 43.0336 -83.5144 249° West 390 449 32,000  Level Cleveland Center
Tue 06:39:44 PM 42.9903 -83.6600 248° West 396 456 32,000  Level Cleveland Center
Tue 06:40:44 PM 42.9592 -83.8061 254° West 407 468 32,000  Level Cleveland Center
Tue 06:41:44 PM 42.9444 -83.9528 262° West 407 468 32,000  Level Cleveland Center
Tue 06:42:44 PM 42.9317 -84.1025 263° West 402 463 32,000  Level Cleveland Center
Tue 06:43:44 PM 42.9144 -84.2519 261° West 402 463 32,000  Level Cleveland Center
Tue 06:44:44 PM 42.9011 -84.4097 263° West 402 463 32,000  Level Cleveland Center
Tue 06:46:15 PM 42.8800 -84.6158 262° West 399 459 32,000  Level Chicago Center
Tue 06:47:17 PM 42.8658 -84.7644 263° West 397 457 32,000  Level Chicago Center
Tue 06:48:19 PM 42.8467 -84.9431 262° West 397 457 32,000  Level Chicago Center
Tue 06:49:21 PM 42.8306 -85.0925 262° West 400 460 32,000  Level Chicago Center
Tue 06:50:23 PM 42.8144 -85.2414 262° West 399 459 32,000  Level Chicago Center
Tue 06:51:25 PM 42.7981 -85.3917 262° West 399 459 32,000 -871 Level Chicago Center
Tue 06:52:27 PM 42.7794 -85.5372 260° West 392 451 30,200 -1,984 Descending Chicago Center
Tue 06:53:29 PM 42.7536 -85.6831 256° West 393 452 27,900 -2,160 Descending Chicago Center
Tue 06:54:32 PM 42.7250 -85.8353 256° West 406 467 25,700 -2,208 Descending Chicago Center
Tue 06:55:34 PM 42.6917 -86.0181 256° West 412 474 23,300 -2,129 Descending Chicago Center
Tue 06:56:36 PM 42.6672 -86.1575 257° West 390 449 21,300 -1,597 Descending Chicago Center
Tue 06:57:38 PM 42.6358 -86.2922 252° West 377 434 20,000 -629 Descending Chicago Center
Tue 06:58:40 PM 42.6031 -86.4281 252° West 377 434 20,000  Level Chicago Center
Tue 06:59:42 PM 42.5722 -86.5672 253° West 384 442 20,000 -581 Level Chicago Center
Tue 07:00:44 PM 42.5397 -86.7172 254° West 384 442 18,800 -1,645 Descending Chicago Center
Tue 07:01:46 PM 42.5092 -86.8464 252° West 367 422 16,600 -2,032 Descending Chicago Center
Tue 07:02:48 PM 42.4753 -86.9928 253° West 361 415 14,600 -1,839 Descending Chicago Center
Tue 07:03:50 PM 42.4436 -87.1217 252° West 363 418 12,800 -1,935 Descending Chicago Center
Tue 07:04:52 PM 42.4142 -87.2494 253° West 358 412 10,600 -1,344 Descending Chicago Center
Tue 07:05:55 PM 42.3828 -87.3725 251° West 351 404 10,000 -240 Descending Chicago Center
Tue 07:06:57 PM 42.3483 -87.4972 250° West 347 399 10,100  Climbing Chicago Center
Tue 07:07:59 PM 42.2797 -87.5961 227° Southwest 369 425 10,000 -48 Descending Chicago Center
Tue 07:09:01 PM 42.1836 -87.6994 219° Southwest 370 426 10,000  Level Chicago Center
Tue 07:10:03 PM 42.1108 -87.7861 221° Southwest 355 409 10,000 -532 Level Chicago Center
Tue 07:11:05 PM 42.0906 -87.8864 255° West 293 337 8,900 -1,403 Descending Chicago Center
Tue 07:12:07 PM 42.0914 -87.9867 271° West 273 314 7,100 -1,452 Descending Chicago Center
Tue 07:13:09 PM 42.0908 -88.0928 270° West 253 291 5,900 -1,403 Descending Chicago Center
Tue 07:14:11 PM 42.0686 -88.1572 245° Southwest 235 270 4,200 -1,381 Descending Chicago Center
Tue 07:15:15 PM 42.0000 -88.1167 156° South 220 253 3,000 -629 Descending Chicago TRACON
Tue 07:16:15 PM 41.9833 -88.0667 114° Southeast 172 198 2,900 -100 Descending Chicago TRACON

Login

Don't have an account? Register now (free) for customized features, flight alerts, and more!